createdAt,value
2018-08-11T00:00:58.178Z,100.00
2018-08-11T00:03:25.534Z,100.00
2018-08-11T00:05:52.813Z,99.89
2018-08-11T00:08:20.258Z,100.00
2018-08-11T00:10:47.887Z,100.00
2018-08-11T00:13:15.514Z,99.40
2018-08-11T00:15:42.851Z,100.00
2018-08-11T00:18:10.268Z,99.62
2018-08-11T00:20:37.617Z,100.00
2018-08-11T00:23:05.612Z,100.00
2018-08-11T00:25:33.170Z,100.00
2018-08-11T00:28:00.457Z,99.43
2018-08-11T00:30:27.964Z,99.92
2018-08-11T00:32:55.284Z,100.00
2018-08-11T00:35:23.544Z,100.00
2018-08-11T00:37:50.966Z,99.33
2018-08-11T00:40:19.455Z,100.00
2018-08-11T00:42:48.044Z,99.95
2018-08-11T00:45:16.019Z,100.00
2018-08-11T00:47:43.469Z,99.74
2018-08-11T00:50:18.738Z,100.00
2018-08-11T00:52:46.112Z,100.00
2018-08-11T00:55:13.865Z,99.93
2018-08-11T00:57:41.789Z,100.00
2018-08-11T01:00:13.548Z,100.00
2018-08-11T01:02:41.449Z,100.00
2018-08-11T01:05:11.409Z,99.86
2018-08-11T01:07:39.578Z,100.00
2018-08-11T01:10:07.706Z,100.00
2018-08-11T01:12:35.049Z,100.00
2018-08-11T01:15:03.059Z,100.00
2018-08-11T01:17:31.121Z,100.00
2018-08-11T01:19:58.482Z,100.00
2018-08-11T01:22:25.802Z,100.00
2018-08-11T01:24:53.335Z,100.00
2018-08-11T01:27:20.654Z,100.00
2018-08-11T01:29:48.678Z,100.00
2018-08-11T01:32:16.090Z,100.00
2018-08-11T01:34:43.398Z,100.00
2018-08-11T01:37:10.743Z,97.71
2018-08-11T01:39:39.529Z,90.72
2018-08-11T01:42:06.837Z,82.13
2018-08-11T01:44:34.115Z,77.02
2018-08-11T01:47:01.384Z,80.52
2018-08-11T01:49:28.657Z,83.54
2018-08-11T01:51:55.920Z,85.71
2018-08-11T01:54:23.217Z,87.15
2018-08-11T01:56:50.526Z,87.38
2018-08-11T01:59:17.987Z,87.21
2018-08-11T02:01:45.346Z,87.79
2018-08-11T02:04:12.707Z,87.33
2018-08-11T02:06:40.128Z,88.27
2018-08-11T02:09:08.588Z,87.93
2018-08-11T02:11:35.860Z,88.48
2018-08-11T02:14:03.107Z,88.38
2018-08-11T02:16:30.436Z,88.42
2018-08-11T02:18:57.706Z,88.13
2018-08-11T02:21:24.980Z,88.47
2018-08-11T02:23:52.326Z,88.42
2018-08-11T02:26:19.675Z,88.37
2018-08-11T02:28:47.005Z,88.24
2018-08-11T02:31:14.583Z,88.39
2018-08-11T02:33:42.136Z,88.65
2018-08-11T02:36:09.499Z,88.06
2018-08-11T02:38:36.833Z,88.84
2018-08-11T02:41:04.137Z,88.94
2018-08-11T02:43:31.472Z,88.90
2018-08-11T02:45:59.429Z,90.57
2018-08-11T02:48:26.784Z,90.05
2018-08-11T02:50:54.763Z,89.76
2018-08-11T02:53:22.029Z,90.00
2018-08-11T02:55:49.465Z,89.82
2018-08-11T02:58:16.789Z,89.83
2018-08-11T03:00:44.655Z,90.59
2018-08-11T03:03:11.965Z,89.90
2018-08-11T03:05:39.317Z,90.87
2018-08-11T03:08:06.609Z,91.04
2018-08-11T03:10:33.870Z,90.50
2018-08-11T03:13:01.169Z,90.64
2018-08-11T03:15:28.483Z,90.90
2018-08-11T03:17:55.762Z,90.48
2018-08-11T03:20:23.044Z,90.38
2018-08-11T03:22:50.350Z,90.98
2018-08-11T03:25:17.707Z,91.24
2018-08-11T03:27:45.083Z,90.94
2018-08-11T03:30:12.479Z,90.96
2018-08-11T03:32:39.766Z,91.25
2018-08-11T03:35:07.109Z,90.91
2018-08-11T03:37:35.181Z,90.73
2018-08-11T03:40:02.470Z,90.62
2018-08-11T03:42:30.442Z,91.10
2018-08-11T03:44:57.752Z,90.95
2018-08-11T03:47:25.131Z,89.64
2018-08-11T03:49:52.529Z,90.20
2018-08-11T03:52:19.849Z,90.95
2018-08-11T03:54:47.260Z,91.22
2018-08-11T03:57:14.609Z,89.97
2018-08-11T03:59:42.284Z,90.83
2018-08-11T04:02:09.713Z,90.74
2018-08-11T04:04:36.985Z,90.67
2018-08-11T04:07:04.401Z,91.01
2018-08-11T04:09:32.297Z,91.54
2018-08-11T04:11:59.639Z,91.15
2018-08-11T04:14:26.904Z,91.16
2018-08-11T04:16:54.300Z,91.06
2018-08-11T04:19:21.608Z,90.01
2018-08-11T04:21:49.460Z,89.91
2018-08-11T04:24:16.829Z,90.17
2018-08-11T04:26:44.066Z,90.46
2018-08-11T04:29:11.417Z,89.70
2018-08-11T04:31:38.674Z,90.39
2018-08-11T04:34:06.317Z,89.33
2018-08-11T04:36:33.642Z,88.90
2018-08-11T04:39:00.887Z,89.59
2018-08-11T04:41:28.200Z,89.48
2018-08-11T04:43:55.511Z,90.38
2018-08-11T04:46:22.838Z,90.54
2018-08-11T04:48:50.162Z,90.15
2018-08-11T04:51:17.408Z,89.87
2018-08-11T04:53:44.712Z,88.91
2018-08-11T04:56:12.218Z,88.78
2018-08-11T04:58:40.268Z,87.59
2018-08-11T05:01:07.618Z,89.64
2018-08-11T05:03:35.116Z,89.15
2018-08-11T05:06:02.401Z,90.64
2018-08-11T05:08:29.677Z,90.92
2018-08-11T05:10:57.020Z,89.98
2018-08-11T05:13:24.308Z,89.73
2018-08-11T05:15:51.732Z,88.94
2018-08-11T05:18:19.062Z,88.86
2018-08-11T05:20:46.407Z,88.90
2018-08-11T05:23:13.720Z,88.46
2018-08-11T05:25:41.042Z,89.33
2018-08-11T13:15:56.030Z,38.51
2018-08-11T13:18:23.458Z,36.06
2018-08-11T13:20:51.028Z,36.59
2018-08-11T13:23:18.399Z,34.89
2018-08-11T13:25:46.064Z,36.57
2018-08-11T13:28:13.572Z,34.75
2018-08-11T13:30:41.672Z,34.00
2018-08-11T13:33:09.132Z,35.37
2018-08-11T13:35:36.587Z,32.85
2018-08-11T13:38:04.177Z,35.43
2018-08-11T13:40:32.232Z,35.01
2018-08-11T13:42:59.683Z,34.21
2018-08-11T13:45:27.320Z,33.10
2018-08-11T13:47:54.614Z,32.66
2018-08-11T13:50:22.858Z,33.54
2018-08-11T13:52:50.833Z,32.77
2018-08-11T13:55:19.373Z,33.88
2018-08-11T13:57:47.067Z,32.45
2018-08-11T14:00:14.390Z,34.87
2018-08-11T14:02:41.821Z,36.00
2018-08-11T14:05:09.378Z,36.28
2018-08-11T14:07:37.538Z,34.60
2018-08-11T14:10:06.973Z,38.42
2018-08-11T14:12:34.344Z,38.75
2018-08-11T14:15:01.676Z,37.76
2018-08-11T14:17:29.882Z,39.24
2018-08-11T14:19:57.244Z,39.26
2018-08-11T14:22:25.428Z,39.16
2018-08-11T14:24:52.898Z,39.04
2018-08-11T14:27:20.270Z,40.03
2018-08-11T14:29:48.250Z,39.07
2018-08-11T14:32:15.702Z,38.72
2018-08-11T14:34:43.052Z,38.29
2018-08-11T14:37:10.421Z,39.58
2018-08-11T14:39:38.962Z,39.38
2018-08-11T14:42:06.681Z,38.94
2018-08-11T14:44:34.300Z,41.54
2018-08-11T14:47:03.109Z,40.94
2018-08-11T14:49:30.804Z,41.98
2018-08-11T14:51:58.127Z,43.26
2018-08-11T14:54:25.544Z,43.30
2018-08-11T14:56:52.942Z,45.94
2018-08-11T14:59:20.398Z,44.76
2018-08-11T15:01:47.971Z,45.16
2018-08-11T15:04:15.556Z,46.29
2018-08-11T15:06:42.931Z,45.87
2018-08-11T15:09:11.263Z,45.42
2018-08-11T15:11:38.972Z,44.56
2018-08-11T15:14:06.507Z,46.44
2018-08-11T15:16:34.215Z,47.04
2018-08-11T15:19:02.068Z,45.27
2018-08-11T15:21:29.412Z,42.85
2018-08-11T15:23:57.990Z,42.76
2018-08-11T15:26:25.523Z,43.41
2018-08-11T15:28:53.127Z,42.82
2018-08-11T15:31:21.137Z,43.28
2018-08-11T15:33:48.577Z,42.52
2018-08-11T15:36:16.104Z,41.18
2018-08-11T15:38:43.652Z,41.65
2018-08-11T15:41:11.438Z,41.41
2018-08-11T15:43:39.111Z,38.90
2018-08-11T15:46:06.834Z,38.02
2018-08-11T15:48:34.243Z,40.57
2018-08-11T15:51:01.838Z,38.26
2018-08-11T15:53:30.022Z,41.15
2018-08-11T15:55:57.662Z,38.67
2018-08-11T15:58:25.242Z,39.64
2018-08-11T16:00:52.643Z,38.78
2018-08-11T16:03:20.102Z,37.48
2018-08-11T16:05:47.669Z,38.41
2018-08-11T16:08:15.344Z,38.33
2018-08-11T16:10:43.535Z,39.69
2018-08-11T16:13:10.991Z,38.01
2018-08-11T16:15:38.381Z,37.07
2018-08-11T16:18:06.002Z,40.21
2018-08-11T16:20:33.571Z,39.53
2018-08-11T16:23:01.557Z,40.70
2018-08-11T16:25:29.431Z,38.57
2018-08-11T16:27:56.869Z,36.46
2018-08-11T16:30:24.299Z,38.92
2018-08-11T16:32:52.043Z,39.26
2018-08-11T16:35:19.426Z,39.80
2018-08-11T16:37:46.783Z,40.57
2018-08-11T16:40:14.266Z,40.17
2018-08-11T16:42:41.646Z,41.52
2018-08-11T16:45:09.794Z,41.99
2018-08-11T16:47:37.533Z,42.08
2018-08-11T16:50:06.066Z,43.61
2018-08-11T16:52:33.567Z,43.27
2018-08-11T16:55:01.023Z,43.71
2018-08-11T16:57:28.705Z,42.43
2018-08-11T16:59:56.106Z,43.59
2018-08-11T17:02:24.057Z,43.18
2018-08-11T17:04:52.195Z,43.46
2018-08-11T17:07:19.973Z,43.97
2018-08-11T17:09:47.345Z,43.64
2018-08-11T17:12:15.137Z,43.59
2018-08-11T17:14:42.820Z,44.56
2018-08-11T17:17:10.304Z,45.03
2018-08-11T17:19:37.717Z,45.07
2018-08-11T17:22:05.570Z,46.06
2018-08-11T17:24:33.094Z,46.84
2018-08-11T17:27:00.596Z,46.62
2018-08-11T17:29:28.272Z,47.18
2018-08-11T17:31:55.963Z,46.84
2018-08-11T17:34:23.794Z,47.80
2018-08-11T17:36:52.393Z,48.29
2018-08-11T17:39:20.044Z,47.12
2018-08-11T17:41:47.391Z,47.58
2018-08-11T17:44:16.536Z,47.78
2018-08-11T17:46:44.129Z,48.06
2018-08-11T17:49:11.758Z,48.75
2018-08-11T17:51:39.179Z,49.37
2018-08-11T17:54:07.673Z,48.87
2018-08-11T17:56:35.019Z,48.91
2018-08-11T17:59:02.702Z,50.26
2018-08-11T18:01:30.030Z,50.69
2018-08-11T18:03:58.304Z,49.89
2018-08-11T18:06:32.839Z,50.10
2018-08-11T18:09:00.561Z,51.31
2018-08-11T18:11:27.905Z,51.67
2018-08-11T18:13:55.321Z,51.78
2018-08-11T18:16:22.747Z,52.34
2018-08-11T18:18:50.549Z,51.78
2018-08-11T18:21:17.902Z,52.43
2018-08-11T18:23:45.481Z,54.04
2018-08-11T18:26:13.407Z,54.18
2018-08-11T18:28:41.066Z,54.52
2018-08-11T18:31:10.364Z,54.78
2018-08-11T18:33:39.579Z,55.07
2018-08-11T18:36:07.318Z,56.17
2018-08-11T18:38:35.014Z,56.10
2018-08-11T18:41:03.341Z,56.11
2018-08-11T18:43:32.618Z,56.81
2018-08-11T18:46:00.066Z,57.78
2018-08-11T18:48:28.770Z,57.80
2018-08-11T18:50:57.259Z,57.42
2018-08-11T18:53:24.905Z,58.05
2018-08-11T18:55:52.630Z,57.66
2018-08-11T18:58:20.038Z,57.59
2018-08-11T19:00:47.695Z,58.63
2018-08-11T19:03:15.387Z,60.18
2018-08-11T19:05:42.904Z,59.90
2018-08-11T19:08:10.873Z,63.80
2018-08-11T19:10:38.321Z,61.39
2018-08-11T19:13:10.108Z,60.95
2018-08-11T19:15:38.094Z,61.68
2018-08-11T19:18:05.959Z,61.70
2018-08-11T19:20:33.222Z,61.29
2018-08-11T19:23:00.891Z,61.97
2018-08-11T19:25:28.224Z,62.17
2018-08-11T19:27:56.285Z,61.86
2018-08-11T19:30:23.952Z,63.86
2018-08-11T19:32:51.368Z,62.91
2018-08-11T19:35:19.377Z,63.97
2018-08-11T19:37:46.619Z,64.52
2018-08-11T19:40:14.914Z,65.43
2018-08-11T19:42:42.595Z,64.71
2018-08-11T19:45:11.091Z,63.71
2018-08-11T19:47:38.650Z,64.71
2018-08-11T19:50:08.617Z,65.83
2018-08-11T19:52:36.427Z,65.23
2018-08-11T19:55:04.294Z,65.59
2018-08-11T19:57:33.889Z,64.82
2018-08-11T20:00:01.202Z,65.16
2018-08-11T20:02:28.558Z,65.82
2018-08-11T20:04:55.858Z,66.91
2018-08-11T20:07:24.044Z,69.55
2018-08-11T20:09:52.370Z,69.53
2018-08-11T20:12:20.844Z,68.69
2018-08-11T20:14:50.392Z,67.89
2018-08-11T20:17:19.198Z,67.06
2018-08-11T20:19:48.349Z,69.02
2018-08-11T20:22:19.624Z,70.27
2018-08-11T20:24:47.625Z,68.82
2018-08-11T20:27:16.239Z,68.86
2018-08-11T20:29:44.161Z,71.51
2018-08-11T20:32:12.763Z,69.29
2018-08-11T20:34:40.751Z,69.44
2018-08-11T20:37:08.612Z,69.41
2018-08-11T20:39:37.733Z,70.10
2018-08-11T20:42:06.585Z,69.44
2018-08-11T20:44:34.221Z,69.93
2018-08-11T20:47:02.930Z,73.62
2018-08-11T20:49:30.884Z,74.15
2018-08-11T20:51:59.405Z,71.84
2018-08-11T20:54:27.245Z,70.81
2018-08-11T20:56:54.850Z,74.34
2018-08-11T20:59:23.900Z,73.25
2018-08-11T21:01:51.218Z,73.16
2018-08-11T21:04:18.525Z,71.60
2018-08-11T21:06:45.847Z,72.33
2018-08-11T21:09:13.498Z,73.34
2018-08-11T21:11:41.057Z,74.36
2018-08-11T21:14:08.970Z,73.71
2018-08-11T21:16:36.253Z,73.48
2018-08-11T21:19:03.616Z,72.52
2018-08-11T21:21:30.969Z,73.96
2018-08-11T21:23:58.864Z,75.28
2018-08-11T21:26:26.173Z,75.91
2018-08-11T21:28:53.696Z,73.55
2018-08-11T21:31:21.323Z,73.12
2018-08-11T21:33:48.781Z,74.17
2018-08-11T21:36:16.287Z,73.66
2018-08-11T21:38:43.705Z,73.04
2018-08-11T21:41:11.064Z,75.25
2018-08-11T21:43:38.306Z,73.76
2018-08-11T21:46:05.617Z,73.27
2018-08-11T21:48:33.177Z,73.73
2018-08-11T21:51:00.514Z,73.84
2018-08-11T21:53:27.920Z,74.43
2018-08-11T21:55:55.950Z,74.91
2018-08-11T21:58:23.318Z,76.24
2018-08-11T22:00:56.035Z,73.65
2018-08-11T22:03:23.354Z,73.92
2018-08-11T22:05:50.665Z,74.78
2018-08-11T22:08:18.095Z,75.54
2018-08-11T22:10:45.447Z,76.53
2018-08-11T22:13:12.734Z,75.22
2018-08-11T22:15:40.357Z,75.12
2018-08-11T22:18:07.714Z,74.76
2018-08-11T22:20:34.966Z,74.57
2018-08-11T22:23:02.225Z,75.02
2018-08-11T22:25:29.513Z,75.23
2018-08-11T22:27:56.777Z,76.34
2018-08-11T22:30:24.147Z,78.28
2018-08-11T22:32:51.567Z,77.43
2018-08-11T22:35:18.844Z,78.32
2018-08-11T22:37:46.103Z,75.91
2018-08-11T22:40:13.371Z,77.81
2018-08-11T22:42:40.660Z,76.15
2018-08-11T22:45:09.545Z,77.08
2018-08-11T22:47:37.646Z,75.92
2018-08-11T22:50:06.648Z,76.69
2018-08-11T22:52:34.900Z,77.59
2018-08-11T22:55:02.274Z,77.72
2018-08-11T22:57:29.576Z,76.48
2018-08-11T22:59:56.812Z,76.77
2018-08-11T23:02:24.066Z,76.48
2018-08-11T23:04:51.884Z,77.97
2018-08-11T23:07:19.150Z,75.14
2018-08-11T23:09:46.409Z,77.27
2018-08-11T23:12:13.673Z,76.37
2018-08-11T23:14:40.953Z,76.32
2018-08-11T23:17:08.290Z,77.20
2018-08-11T23:19:35.551Z,76.76
2018-08-11T23:22:02.781Z,77.67
2018-08-11T23:24:30.838Z,76.31
2018-08-11T23:26:58.234Z,77.42
2018-08-11T23:29:25.505Z,77.65
2018-08-11T23:31:52.864Z,77.70
2018-08-11T23:34:20.810Z,77.14
2018-08-11T23:36:48.199Z,76.56
2018-08-11T23:39:15.466Z,76.34
2018-08-11T23:41:42.962Z,77.62
2018-08-11T23:44:10.809Z,78.77
2018-08-11T23:46:38.190Z,77.50
2018-08-11T23:49:05.567Z,77.15
2018-08-11T23:51:32.890Z,77.64
2018-08-11T23:54:00.111Z,77.65
2018-08-11T23:56:27.416Z,78.16
2018-08-11T23:58:55.300Z,78.75
